地図

経路データ

SID SEASON NUMBER BASIN SUBBASIN NAME ISO_TIME NATURE LAT LON WMO_WIND WMO_PRES WMO_AGENCY TRACK_TYPE DIST2LAND LANDFALL IFLAG USA_AGENCY USA_ATCF_ID USA_LAT USA_LON USA_RECORD USA_STATUS USA_WIND USA_PRES USA_SSHS USA_R34_NE USA_R34_SE USA_R34_SW USA_R34_NW USA_R50_NE USA_R50_SE USA_R50_SW USA_R50_NW USA_R64_NE USA_R64_SE USA_R64_SW USA_R64_NW USA_POCI USA_ROCI USA_RMW USA_EYE TOKYO_LAT TOKYO_LON TOKYO_GRADE TOKYO_WIND TOKYO_PRES TOKYO_R50_DIR TOKYO_R50_LONG TOKYO_R50_SHORT TOKYO_R30_DIR TOKYO_R30_LONG TOKYO_R30_SHORT TOKYO_LAND CMA_LAT CMA_LON CMA_CAT CMA_WIND CMA_PRES HKO_LAT HKO_LON HKO_CAT HKO_WIND HKO_PRES NEWDELHI_LAT NEWDELHI_LON NEWDELHI_GRADE NEWDELHI_WIND NEWDELHI_PRES NEWDELHI_CI NEWDELHI_DP NEWDELHI_POCI REUNION_LAT REUNION_LON REUNION_TYPE REUNION_WIND REUNION_PRES REUNION_TNUM REUNION_CI REUNION_RMW REUNION_R34_NE REUNION_R34_SE REUNION_R34_SW REUNION_R34_NW REUNION_R50_NE REUNION_R50_SE REUNION_R50_SW REUNION_R50_NW REUNION_R64_NE REUNION_R64_SE REUNION_R64_SW REUNION_R64_NW BOM_LAT BOM_LON BOM_TYPE BOM_WIND BOM_PRES BOM_TNUM BOM_CI BOM_RMW BOM_R34_NE BOM_R34_SE BOM_R34_SW BOM_R34_NW BOM_R50_NE BOM_R50_SE BOM_R50_SW BOM_R50_NW BOM_R64_NE BOM_R64_SE BOM_R64_SW BOM_R64_NW BOM_ROCI BOM_POCI BOM_EYE BOM_POS_METHOD BOM_PRES_METHOD NADI_LAT NADI_LON NADI_CAT NADI_WIND NADI_PRES WELLINGTON_LAT WELLINGTON_LON WELLINGTON_WIND WELLINGTON_PRES DS824_LAT DS824_LON DS824_STAGE DS824_WIND DS824_PRES TD9636_LAT TD9636_LON TD9636_STAGE TD9636_WIND TD9636_PRES TD9635_LAT TD9635_LON TD9635_WIND TD9635_PRES TD9635_ROCI NEUMANN_LAT NEUMANN_LON NEUMANN_CLASS NEUMANN_WIND NEUMANN_PRES MLC_LAT MLC_LON MLC_CLASS MLC_WIND MLC_PRES USA_GUST BOM_GUST BOM_GUST_PER REUNION_GUST REUNION_GUST_PER USA_SEAHGT USA_SEARAD_NE USA_SEARAD_SE USA_SEARAD_SW USA_SEARAD_NW STORM_SPEED STORM_DIR
1852270N20295 1852 11 NA NA NOT_NAMED 1852-09-25 12:00:00 TS 19.9000 -65.1000 spur-other 175 175 _____________O -1 19.9000 -65.1000 HU 85 1 314
1852270N20295 1852 11 NA NA NOT_NAMED 1852-09-25 15:00:00 TS 19.9275 -65.1350 spur-other 175 172 _____________P -1 19.9151 -65.1675 HU 85 1 317
1852270N20295 1852 11 NA NA NOT_NAMED 1852-09-25 18:00:00 TS 20.0000 -65.2000 spur-other 183 183 _____________O -1 20.0000 -65.2000 HU 85 3 347
1852270N20295 1852 11 NA NA NOT_NAMED 1852-09-25 21:00:00 TS 20.1798 -65.1974 spur-other 205 205 _____________P -1 20.1798 -65.1974 HU 85 3 343
1852270N20295 1852 11 NA NA NOT_NAMED 1852-09-26 00:00:00 TS 20.3000 -65.3000 spur-other 214 201 _____________O -1 20.3000 -65.3000 HU 85 4 269
1852270N20295 1852 11 NA NA NOT_NAMED 1852-09-26 03:00:00 TS 20.1727 -65.6479 spur-other 201 178 _____________P -1 20.1727 -65.6479 HU 85 8 248
1852270N20295 1852 11 NA NA NOT_NAMED 1852-09-26 06:00:00 TS 20.0000 -66.1000 spur-other 178 178 _____________O -1 20.0000 -66.1000 HU 85 8 255
1852270N20295 1852 11 NA NA NOT_NAMED 1852-09-26 09:00:00 TS 19.9550 -66.5075 spur-other 178 178 _____________P -1 19.9550 -66.5075 HU 85 8 270
1852270N20295 1852 11 NA NA NOT_NAMED 1852-09-26 12:00:00 TS 20.0000 -66.9000 spur-other 178 178 _____________O -1 20.0000 -66.9000 HU 85 7 283
1852270N20295 1852 11 NA NA NOT_NAMED 1852-09-26 15:00:00 TS 20.1198 -67.2500 spur-other 190 190 _____________P -1 20.1198 -67.2500 HU 85 7 295
1852270N20295 1852 11 NA NA NOT_NAMED 1852-09-26 18:00:00 TS 20.3000 -67.6000 spur-other 197 183 _____________O -1 20.3000 -67.6000 HU 85 8 294
1852270N20295 1852 11 NA NA NOT_NAMED 1852-09-26 21:00:00 TS 20.4401 -68.0152 spur-other 183 176 _____________P -1 20.4401 -68.0152 HU 85 9 298
1852270N20295 1852 11 NA NA NOT_NAMED 1852-09-27 00:00:00 TS 20.7000 -68.4000 spur-other 182 182 _____________O -1 20.7000 -68.4000 HU 85 10 320
1852270N20295 1852 11 NA NA NOT_NAMED 1852-09-27 03:00:00 TS 21.2049 -68.6948 spur-other 221 221 _____________P -1 21.2049 -68.6948 HU 87 12 337
1852270N20295 1852 11 NA NA NOT_NAMED 1852-09-27 06:00:00 TS 21.8000 -68.9000 spur-other 271 271 _____________O -1 21.8000 -68.9000 HU 90 12 344
1852270N20295 1852 11 NA NA NOT_NAMED 1852-09-27 09:00:00 TS 22.3074 -69.0303 spur-other 319 319 _____________P -1 22.3074 -69.0303 HU 90 10 349
1852270N20295 1852 11 NA NA NOT_NAMED 1852-09-27 12:00:00 TS 22.8000 -69.1000 spur-other 369 369 _____________O -1 22.8000 -69.1000 HU 90 10 353
1852270N20295 1852 11 NA NA NOT_NAMED 1852-09-27 15:00:00 TS 23.3000 -69.1576 spur-other 417 417 _____________P -1 23.3000 -69.1576 HU 90 10 355
1852270N20295 1852 11 NA NA NOT_NAMED 1852-09-27 18:00:00 TS 23.8000 -69.2000 spur-other 469 469 _____________O -1 23.8000 -69.2000 HU 90 10 355
1852270N20295 1852 11 NA NA NOT_NAMED 1852-09-27 21:00:00 TS 24.3000 -69.2426 spur-other 521 521 _____________P -1 24.3000 -69.2426 HU 90 10 355
1852270N20295 1852 11 NA NA NOT_NAMED 1852-09-28 00:00:00 TS 24.8000 -69.3000 spur-other 552 552 _____________O -1 24.8000 -69.3000 HU 90 10 352
1852270N20295 1852 11 NA NA NOT_NAMED 1852-09-28 03:00:00 TS 25.3000 -69.3925 spur-other 587 587 _____________P -1 25.3000 -69.3925 HU 90 10 350
1852270N20295 1852 11 NA NA NOT_NAMED 1852-09-28 06:00:00 TS 25.8000 -69.5000 spur-other 625 625 _____________O -1 25.8000 -69.5000 HU 90 10 350
1852270N20295 1852 11 NA NA NOT_NAMED 1852-09-28 09:00:00 TS 26.2999 -69.5779 spur-other 666 666 _____________P -1 26.2999 -69.5779 HU 90 10 350
1852270N20295 1852 11 NA NA NOT_NAMED 1852-09-28 12:00:00 TS 26.8000 -69.7000 spur-other 709 709 _____________O -1 26.8000 -69.7000 HU 90 11 343
1852270N20295 1852 11 NA NA NOT_NAMED 1852-09-28 15:00:00 TS 27.3000 -69.9274 spur-other 750 750 _____________P -1 27.3002 -69.9193 HU 90 11 336
1852270N20295 1852 11 NA NA NOT_NAMED 1852-09-28 18:00:00 TS 27.8000 -70.2000 spur-other 789 789 _____________O -1 27.8000 -70.2000 HU 90 11 335
1852270N20295 1852 11 NA NA NOT_NAMED 1852-09-28 21:00:00 TS 28.3225 -70.4649 spur-other 825 ______________ -1 HU 11 336

IBTrACS Databaseについて

本データベースは、米国NOAAが公開する1842年以降の世界の熱帯低気圧のベストトラックデータアーカイブInternational Best Track Archive for Climate Stewardship (IBTrACS)を、ウェブで閲覧しやすい形式に変換したものです。

最終更新日:2021-10-08